Flight Briefing for CMB814

Departure Arrival
RAF Mildenhall (EGUN)
Click to view FAA NOTAMS
Joint Base McGuire Dix Lakehurst (KWRI)
Click to view FAA NOTAMS
Departure Time Arrival Time
N/A N/A
Aircraft Distance
B767-300BDSF 3069nm
Departure METAR Arrival METAR
EGUN 271056Z AUTO 27015G23KT 9999 BKN080 17/08 A2977 RMK AO2 SLP084 T01720081 $ KWRI 271056Z AUTO 36004KT 10SM CLR 20/13 A2990 RMK AO2 SLP124 T02020134 $
Suggested Route





View recent IFR Routes data
Notes
USTRANSCOM CONTRACT FLIGHT

Charts and Procedures

Charts for EGUN
No chart available
Charts for KWRI
No chart available

Windy.com Weather Map